sensor_id;sensor_type;location;lat;lon;timestamp;pressure;altitude;pressure_sealevel;temperature
18713;BMP280;9485;49.386;8.674;2023-05-07T00:03:34;100298.31;;;18.24
18713;BMP280;9485;49.386;8.674;2023-05-07T00:08:56;100305.78;;;18.27
18713;BMP280;9485;49.386;8.674;2023-05-07T00:14:18;100299.28;;;18.27
18713;BMP280;9485;49.386;8.674;2023-05-07T00:19:39;100290.19;;;18.28
18713;BMP280;9485;49.386;8.674;2023-05-07T00:24:59;100275.34;;;18.30
18713;BMP280;9485;49.386;8.674;2023-05-07T00:30:21;100271.69;;;18.29
18713;BMP280;9485;49.386;8.674;2023-05-07T00:35:42;100274.34;;;18.27
18713;BMP280;9485;49.386;8.674;2023-05-07T00:41:03;100279.84;;;18.25
18713;BMP280;9485;49.386;8.674;2023-05-07T00:46:25;100276.00;;;18.23
18713;BMP280;9485;49.386;8.674;2023-05-07T00:51:47;100279.44;;;18.21
18713;BMP280;9485;49.386;8.674;2023-05-07T00:57:10;100264.66;;;18.17
18713;BMP280;9485;49.386;8.674;2023-05-07T01:02:32;100263.69;;;18.15
18713;BMP280;9485;49.386;8.674;2023-05-07T01:07:54;100256.19;;;18.12
18713;BMP280;9485;49.386;8.674;2023-05-07T01:13:15;100256.00;;;18.10
18713;BMP280;9485;49.386;8.674;2023-05-07T01:18:38;100254.78;;;18.06
18713;BMP280;9485;49.386;8.674;2023-05-07T01:24:01;100258.75;;;18.03
18713;BMP280;9485;49.386;8.674;2023-05-07T01:29:23;100244.25;;;18.01
18713;BMP280;9485;49.386;8.674;2023-05-07T01:34:47;100238.19;;;18.17
18713;BMP280;9485;49.386;8.674;2023-05-07T01:40:11;100237.50;;;18.57
18713;BMP280;9485;49.386;8.674;2023-05-07T01:45:34;100228.75;;;18.96
18713;BMP280;9485;49.386;8.674;2023-05-07T01:50:55;100229.44;;;19.30
18713;BMP280;9485;49.386;8.674;2023-05-07T01:56:18;100232.31;;;19.58
18713;BMP280;9485;49.386;8.674;2023-05-07T02:01:40;100240.09;;;19.77
18713;BMP280;9485;49.386;8.674;2023-05-07T02:07:00;100241.72;;;19.93
18713;BMP280;9485;49.386;8.674;2023-05-07T02:12:24;100241.81;;;20.08
18713;BMP280;9485;49.386;8.674;2023-05-07T02:17:59;100247.41;;;20.21
18713;BMP280;9485;49.386;8.674;2023-05-07T02:23:20;100246.69;;;20.28
18713;BMP280;9485;49.386;8.674;2023-05-07T02:28:42;100242.88;;;20.33
18713;BMP280;9485;49.386;8.674;2023-05-07T02:34:03;100247.44;;;20.29
18713;BMP280;9485;49.386;8.674;2023-05-07T02:39:24;100255.00;;;20.11
18713;BMP280;9485;49.386;8.674;2023-05-07T02:44:46;100250.66;;;19.90
18713;BMP280;9485;49.386;8.674;2023-05-07T02:50:08;100245.53;;;19.61
18713;BMP280;9485;49.386;8.674;2023-05-07T02:55:28;100235.09;;;19.43
18713;BMP280;9485;49.386;8.674;2023-05-07T03:00:51;100243.72;;;19.22
18713;BMP280;9485;49.386;8.674;2023-05-07T03:06:23;100254.38;;;19.01
18713;BMP280;9485;49.386;8.674;2023-05-07T03:11:44;100255.34;;;18.83
18713;BMP280;9485;49.386;8.674;2023-05-07T03:17:05;100243.75;;;18.69
18713;BMP280;9485;49.386;8.674;2023-05-07T03:22:26;100225.88;;;18.55
18713;BMP280;9485;49.386;8.674;2023-05-07T03:27:47;100231.31;;;18.46
18713;BMP280;9485;49.386;8.674;2023-05-07T03:33:11;100230.34;;;18.30
18713;BMP280;9485;49.386;8.674;2023-05-07T03:38:32;100233.78;;;18.16
18713;BMP280;9485;49.386;8.674;2023-05-07T03:43:53;100237.19;;;18.02
18713;BMP280;9485;49.386;8.674;2023-05-07T03:49:15;100234.38;;;17.89
18713;BMP280;9485;49.386;8.674;2023-05-07T03:54:36;100248.44;;;17.74
18713;BMP280;9485;49.386;8.674;2023-05-07T03:59:57;100248.13;;;17.64
18713;BMP280;9485;49.386;8.674;2023-05-07T04:05:20;100255.38;;;17.52
18713;BMP280;9485;49.386;8.674;2023-05-07T04:10:44;100263.91;;;17.39
18713;BMP280;9485;49.386;8.674;2023-05-07T04:16:06;100279.59;;;17.33
18713;BMP280;9485;49.386;8.674;2023-05-07T04:21:30;100268.59;;;17.24
18713;BMP280;9485;49.386;8.674;2023-05-07T04:26:51;100259.81;;;17.22
18713;BMP280;9485;49.386;8.674;2023-05-07T04:32:13;100276.47;;;17.18
18713;BMP280;9485;49.386;8.674;2023-05-07T04:37:35;100275.47;;;17.16
18713;BMP280;9485;49.386;8.674;2023-05-07T04:42:57;100267.69;;;17.16
18713;BMP280;9485;49.386;8.674;2023-05-07T04:48:18;100268.91;;;17.21
18713;BMP280;9485;49.386;8.674;2023-05-07T04:53:42;100285.44;;;17.28
18713;BMP280;9485;49.386;8.674;2023-05-07T04:59:04;100275.66;;;17.36
18713;BMP280;9485;49.386;8.674;2023-05-07T05:04:25;100277.53;;;17.46
18713;BMP280;9485;49.386;8.674;2023-05-07T05:09:48;100285.13;;;17.57
18713;BMP280;9485;49.386;8.674;2023-05-07T05:15:12;100286.69;;;17.71
18713;BMP280;9485;49.386;8.674;2023-05-07T05:20:32;100292.38;;;17.84
18713;BMP280;9485;49.386;8.674;2023-05-07T05:25:57;100294.47;;;17.96
18713;BMP280;9485;49.386;8.674;2023-05-07T05:31:22;100293.16;;;18.10
18713;BMP280;9485;49.386;8.674;2023-05-07T05:36:45;100292.38;;;18.22
18713;BMP280;9485;49.386;8.674;2023-05-07T05:42:09;100295.00;;;18.33
18713;BMP280;9485;49.386;8.674;2023-05-07T05:47:30;100296.28;;;18.45
18713;BMP280;9485;49.386;8.674;2023-05-07T05:52:51;100306.38;;;18.59
18713;BMP280;9485;49.386;8.674;2023-05-07T05:58:14;100302.16;;;18.73
18713;BMP280;9485;49.386;8.674;2023-05-07T06:03:41;100281.72;;;18.89
18713;BMP280;9485;49.386;8.674;2023-05-07T06:09:07;100298.16;;;19.09
18713;BMP280;9485;49.386;8.674;2023-05-07T06:14:35;100304.09;;;19.32
18713;BMP280;9485;49.386;8.674;2023-05-07T06:19:56;100298.69;;;19.49
18713;BMP280;9485;49.386;8.674;2023-05-07T06:25:17;100303.06;;;19.70
18713;BMP280;9485;49.386;8.674;2023-05-07T06:30:39;100314.06;;;19.86
18713;BMP280;9485;49.386;8.674;2023-05-07T06:36:00;100312.94;;;19.89
18713;BMP280;9485;49.386;8.674;2023-05-07T06:41:20;100326.72;;;19.91
18713;BMP280;9485;49.386;8.674;2023-05-07T06:46:42;100356.28;;;20.06
18713;BMP280;9485;49.386;8.674;2023-05-07T06:52:04;100342.63;;;20.27
18713;BMP280;9485;49.386;8.674;2023-05-07T06:57:24;100342.00;;;20.56
18713;BMP280;9485;49.386;8.674;2023-05-07T07:02:46;100334.56;;;21.11
18713;BMP280;9485;49.386;8.674;2023-05-07T07:08:09;100335.34;;;21.34
18713;BMP280;9485;49.386;8.674;2023-05-07T07:13:30;100343.28;;;21.63
18713;BMP280;9485;49.386;8.674;2023-05-07T07:18:53;100341.13;;;21.71
18713;BMP280;9485;49.386;8.674;2023-05-07T07:24:13;100338.97;;;22.16
18713;BMP280;9485;49.386;8.674;2023-05-07T07:29:38;100326.78;;;23.34
18713;BMP280;9485;49.386;8.674;2023-05-07T07:35:00;100326.41;;;24.97
18713;BMP280;9485;49.386;8.674;2023-05-07T07:40:21;100335.44;;;25.63
18713;BMP280;9485;49.386;8.674;2023-05-07T07:45:42;100340.91;;;25.59
18713;BMP280;9485;49.386;8.674;2023-05-07T07:51:05;100339.00;;;25.44
18713;BMP280;9485;49.386;8.674;2023-05-07T07:56:26;100347.78;;;25.27
18713;BMP280;9485;49.386;8.674;2023-05-07T08:01:46;100349.78;;;25.70
18713;BMP280;9485;49.386;8.674;2023-05-07T08:07:12;100367.00;;;26.13
18713;BMP280;9485;49.386;8.674;2023-05-07T08:12:36;100375.94;;;25.98
18713;BMP280;9485;49.386;8.674;2023-05-07T08:17:58;100363.53;;;25.79
18713;BMP280;9485;49.386;8.674;2023-05-07T08:23:26;100374.72;;;26.01
18713;BMP280;9485;49.386;8.674;2023-05-07T08:28:48;100389.50;;;26.79
18713;BMP280;9485;49.386;8.674;2023-05-07T08:34:09;100390.69;;;28.54
18713;BMP280;9485;49.386;8.674;2023-05-07T08:39:34;100383.22;;;29.91
18713;BMP280;9485;49.386;8.674;2023-05-07T08:44:59;100393.13;;;30.80
18713;BMP280;9485;49.386;8.674;2023-05-07T08:50:22;100395.09;;;31.25
18713;BMP280;9485;49.386;8.674;2023-05-07T08:55:47;100380.44;;;31.36
18713;BMP280;9485;49.386;8.674;2023-05-07T09:01:12;100383.59;;;31.79
18713;BMP280;9485;49.386;8.674;2023-05-07T09:06:34;100384.94;;;32.43
18713;BMP280;9485;49.386;8.674;2023-05-07T09:11:59;100378.13;;;33.36
18713;BMP280;9485;49.386;8.674;2023-05-07T09:17:24;100370.22;;;34.31
18713;BMP280;9485;49.386;8.674;2023-05-07T09:22:45;100363.34;;;34.90
18713;BMP280;9485;49.386;8.674;2023-05-07T09:28:12;100372.34;;;34.61
18713;BMP280;9485;49.386;8.674;2023-05-07T09:33:34;100372.59;;;34.19
18713;BMP280;9485;49.386;8.674;2023-05-07T09:38:59;100374.69;;;33.70
18713;BMP280;9485;49.386;8.674;2023-05-07T09:44:22;100374.66;;;32.97
18713;BMP280;9485;49.386;8.674;2023-05-07T09:49:48;100364.16;;;32.50
18713;BMP280;9485;49.386;8.674;2023-05-07T09:55:13;100349.22;;;32.04
18713;BMP280;9485;49.386;8.674;2023-05-07T10:00:41;100347.28;;;31.95
18713;BMP280;9485;49.386;8.674;2023-05-07T10:06:09;100352.56;;;32.66
18713;BMP280;9485;49.386;8.674;2023-05-07T10:11:32;100339.81;;;33.61
18713;BMP280;9485;49.386;8.674;2023-05-07T10:16:57;100343.28;;;34.35
18713;BMP280;9485;49.386;8.674;2023-05-07T10:22:20;100330.97;;;34.88
18713;BMP280;9485;49.386;8.674;2023-05-07T10:27:43;100329.03;;;35.29
18713;BMP280;9485;49.386;8.674;2023-05-07T10:33:10;100328.97;;;35.27
18713;BMP280;9485;49.386;8.674;2023-05-07T10:38:35;100332.16;;;35.16
18713;BMP280;9485;49.386;8.674;2023-05-07T10:43:56;100326.66;;;35.43
18713;BMP280;9485;49.386;8.674;2023-05-07T10:49:24;100317.81;;;34.89
18713;BMP280;9485;49.386;8.674;2023-05-07T10:55:21;100317.47;;;34.64
18713;BMP280;9485;49.386;8.674;2023-05-07T11:00:57;100316.59;;;34.29
18713;BMP280;9485;49.386;8.674;2023-05-07T11:06:37;100309.56;;;33.41
18713;BMP280;9485;49.386;8.674;2023-05-07T11:12:03;100305.59;;;32.48
18713;BMP280;9485;49.386;8.674;2023-05-07T11:17:35;100301.28;;;31.96
18713;BMP280;9485;49.386;8.674;2023-05-07T11:29:46;100288.91;;;32.64
18713;BMP280;9485;49.386;8.674;2023-05-07T11:35:09;100290.00;;;32.86
18713;BMP280;9485;49.386;8.674;2023-05-07T11:40:30;100290.19;;;33.19
18713;BMP280;9485;49.386;8.674;2023-05-07T11:45:52;100278.88;;;33.42
18713;BMP280;9485;49.386;8.674;2023-05-07T11:51:12;100274.72;;;33.63
18713;BMP280;9485;49.386;8.674;2023-05-07T11:56:35;100272.91;;;33.56
18713;BMP280;9485;49.386;8.674;2023-05-07T12:01:58;100270.88;;;33.73
18713;BMP280;9485;49.386;8.674;2023-05-07T12:07:19;100270.66;;;33.85
18713;BMP280;9485;49.386;8.674;2023-05-07T12:12:40;100270.97;;;33.60
18713;BMP280;9485;49.386;8.674;2023-05-07T12:18:02;100260.09;;;33.63
18713;BMP280;9485;49.386;8.674;2023-05-07T12:23:23;100263.97;;;33.82
18713;BMP280;9485;49.386;8.674;2023-05-07T12:28:44;100262.09;;;33.58
18713;BMP280;9485;49.386;8.674;2023-05-07T12:34:06;100247.53;;;33.60
18713;BMP280;9485;49.386;8.674;2023-05-07T12:39:26;100251.97;;;33.61
18713;BMP280;9485;49.386;8.674;2023-05-07T12:44:47;100248.28;;;33.30
18713;BMP280;9485;49.386;8.674;2023-05-07T12:50:10;100247.63;;;33.16
18713;BMP280;9485;49.386;8.674;2023-05-07T12:55:30;100250.09;;;32.92
18713;BMP280;9485;49.386;8.674;2023-05-07T13:00:52;100241.56;;;32.25
18713;BMP280;9485;49.386;8.674;2023-05-07T13:06:14;100218.00;;;32.50
18713;BMP280;9485;49.386;8.674;2023-05-07T13:11:37;100226.19;;;33.58
18713;BMP280;9485;49.386;8.674;2023-05-07T13:16:58;100223.94;;;33.10
18713;BMP280;9485;49.386;8.674;2023-05-07T13:22:20;100213.63;;;32.36
18713;BMP280;9485;49.386;8.674;2023-05-07T13:27:40;100204.19;;;31.82
18713;BMP280;9485;49.386;8.674;2023-05-07T13:33:01;100206.78;;;31.35
18713;BMP280;9485;49.386;8.674;2023-05-07T13:38:25;100210.03;;;30.90
18713;BMP280;9485;49.386;8.674;2023-05-07T13:43:45;100191.53;;;30.47
18713;BMP280;9485;49.386;8.674;2023-05-07T13:49:06;100183.16;;;30.17
18713;BMP280;9485;49.386;8.674;2023-05-07T13:54:28;100192.31;;;30.00
18713;BMP280;9485;49.386;8.674;2023-05-07T13:59:49;100209.19;;;29.78
18713;BMP280;9485;49.386;8.674;2023-05-07T14:05:11;100222.03;;;29.51
18713;BMP280;9485;49.386;8.674;2023-05-07T14:10:34;100229.94;;;29.04
18713;BMP280;9485;49.386;8.674;2023-05-07T14:15:54;100239.66;;;28.54
18713;BMP280;9485;49.386;8.674;2023-05-07T14:21:15;100296.66;;;27.96
18713;BMP280;9485;49.386;8.674;2023-05-07T14:26:38;100337.25;;;27.26
18713;BMP280;9485;49.386;8.674;2023-05-07T14:31:59;100356.94;;;26.24
18713;BMP280;9485;49.386;8.674;2023-05-07T14:37:19;100373.44;;;25.50
18713;BMP280;9485;49.386;8.674;2023-05-07T14:42:42;100386.94;;;24.78
18713;BMP280;9485;49.386;8.674;2023-05-07T14:48:04;100419.69;;;23.66
18713;BMP280;9485;49.386;8.674;2023-05-07T14:53:25;100426.34;;;22.66
18713;BMP280;9485;49.386;8.674;2023-05-07T14:58:47;100452.09;;;21.89
18713;BMP280;9485;49.386;8.674;2023-05-07T15:04:08;100477.41;;;21.25
18713;BMP280;9485;49.386;8.674;2023-05-07T15:09:29;100498.28;;;20.83
18713;BMP280;9485;49.386;8.674;2023-05-07T15:14:51;100505.22;;;20.39
18713;BMP280;9485;49.386;8.674;2023-05-07T15:20:13;100527.75;;;19.95
18713;BMP280;9485;49.386;8.674;2023-05-07T15:25:34;100530.84;;;19.63
18713;BMP280;9485;49.386;8.674;2023-05-07T15:30:57;100526.75;;;19.39
18713;BMP280;9485;49.386;8.674;2023-05-07T15:36:17;100522.38;;;19.25
18713;BMP280;9485;49.386;8.674;2023-05-07T15:41:38;100517.78;;;19.09
18713;BMP280;9485;49.386;8.674;2023-05-07T15:47:01;100518.41;;;19.02
18713;BMP280;9485;49.386;8.674;2023-05-07T15:52:22;100487.16;;;19.04
18713;BMP280;9485;49.386;8.674;2023-05-07T15:57:43;100483.31;;;19.01
18713;BMP280;9485;49.386;8.674;2023-05-07T16:03:06;100490.03;;;19.04
18713;BMP280;9485;49.386;8.674;2023-05-07T16:08:27;100493.00;;;18.98
18713;BMP280;9485;49.386;8.674;2023-05-07T16:13:49;100486.75;;;18.87
18713;BMP280;9485;49.386;8.674;2023-05-07T16:19:12;100488.53;;;18.77
18713;BMP280;9485;49.386;8.674;2023-05-07T16:24:32;100491.25;;;18.70
18713;BMP280;9485;49.386;8.674;2023-05-07T16:29:53;100491.81;;;18.68
18713;BMP280;9485;49.386;8.674;2023-05-07T16:35:15;100480.81;;;18.59
18713;BMP280;9485;49.386;8.674;2023-05-07T16:40:38;100484.22;;;18.58
18713;BMP280;9485;49.386;8.674;2023-05-07T16:45:58;100488.31;;;18.62
18713;BMP280;9485;49.386;8.674;2023-05-07T16:51:21;100494.91;;;18.70
18713;BMP280;9485;49.386;8.674;2023-05-07T16:56:44;100499.50;;;18.73
18713;BMP280;9485;49.386;8.674;2023-05-07T17:02:07;100489.63;;;18.74
18713;BMP280;9485;49.386;8.674;2023-05-07T17:07:29;100480.47;;;18.76
18713;BMP280;9485;49.386;8.674;2023-05-07T17:12:50;100485.44;;;18.75
18713;BMP280;9485;49.386;8.674;2023-05-07T17:18:11;100475.88;;;18.73
18713;BMP280;9485;49.386;8.674;2023-05-07T17:23:33;100479.16;;;18.77
18713;BMP280;9485;49.386;8.674;2023-05-07T17:28:55;100486.19;;;18.76
18713;BMP280;9485;49.386;8.674;2023-05-07T17:34:16;100477.09;;;18.77
18713;BMP280;9485;49.386;8.674;2023-05-07T17:39:38;100470.34;;;18.75
18713;BMP280;9485;49.386;8.674;2023-05-07T17:44:59;100480.06;;;18.72
18713;BMP280;9485;49.386;8.674;2023-05-07T17:50:20;100477.63;;;18.63
18713;BMP280;9485;49.386;8.674;2023-05-07T17:55:43;100477.97;;;18.59
18713;BMP280;9485;49.386;8.674;2023-05-07T18:01:04;100499.28;;;18.58
18713;BMP280;9485;49.386;8.674;2023-05-07T18:06:25;100485.66;;;18.51
18713;BMP280;9485;49.386;8.674;2023-05-07T18:11:47;100495.03;;;18.52
18713;BMP280;9485;49.386;8.674;2023-05-07T18:17:08;100498.06;;;18.54
18713;BMP280;9485;49.386;8.674;2023-05-07T18:22:29;100508.31;;;18.49
18713;BMP280;9485;49.386;8.674;2023-05-07T18:27:51;100511.94;;;18.50
18713;BMP280;9485;49.386;8.674;2023-05-07T18:33:12;100522.41;;;18.47
18713;BMP280;9485;49.386;8.674;2023-05-07T18:38:34;100530.41;;;18.36
18713;BMP280;9485;49.386;8.674;2023-05-07T18:43:56;100522.78;;;18.25
18713;BMP280;9485;49.386;8.674;2023-05-07T18:49:17;100539.72;;;18.23
18713;BMP280;9485;49.386;8.674;2023-05-07T18:54:38;100544.34;;;18.26
18713;BMP280;9485;49.386;8.674;2023-05-07T19:00:00;100546.88;;;18.30
18713;BMP280;9485;49.386;8.674;2023-05-07T19:05:21;100574.69;;;18.29
18713;BMP280;9485;49.386;8.674;2023-05-07T19:10:43;100582.81;;;18.25
18713;BMP280;9485;49.386;8.674;2023-05-07T19:16:05;100596.69;;;18.21
18713;BMP280;9485;49.386;8.674;2023-05-07T19:21:28;100592.78;;;18.19
18713;BMP280;9485;49.386;8.674;2023-05-07T19:26:49;100597.81;;;18.13
18713;BMP280;9485;49.386;8.674;2023-05-07T19:32:10;100600.66;;;18.13
18713;BMP280;9485;49.386;8.674;2023-05-07T19:37:31;100613.88;;;18.16
18713;BMP280;9485;49.386;8.674;2023-05-07T19:42:52;100620.16;;;18.14
18713;BMP280;9485;49.386;8.674;2023-05-07T19:48:14;100619.34;;;18.14
18713;BMP280;9485;49.386;8.674;2023-05-07T19:53:35;100631.25;;;18.18
18713;BMP280;9485;49.386;8.674;2023-05-07T19:58:55;100639.75;;;18.23
18713;BMP280;9485;49.386;8.674;2023-05-07T20:04:17;100640.22;;;18.27
18713;BMP280;9485;49.386;8.674;2023-05-07T20:09:39;100642.53;;;18.29
18713;BMP280;9485;49.386;8.674;2023-05-07T20:15:00;100650.56;;;18.30
18713;BMP280;9485;49.386;8.674;2023-05-07T20:20:23;100658.63;;;18.32
18713;BMP280;9485;49.386;8.674;2023-05-07T20:25:43;100652.34;;;18.33
18713;BMP280;9485;49.386;8.674;2023-05-07T20:31:04;100662.47;;;18.34
18713;BMP280;9485;49.386;8.674;2023-05-07T20:36:26;100665.09;;;18.32
18713;BMP280;9485;49.386;8.674;2023-05-07T20:41:47;100675.22;;;18.33
18713;BMP280;9485;49.386;8.674;2023-05-07T20:47:08;100679.16;;;18.30
18713;BMP280;9485;49.386;8.674;2023-05-07T20:52:30;100685.50;;;18.23
18713;BMP280;9485;49.386;8.674;2023-05-07T20:57:50;100703.25;;;18.16
18713;BMP280;9485;49.386;8.674;2023-05-07T21:03:11;100705.88;;;18.14
18713;BMP280;9485;49.386;8.674;2023-05-07T21:08:33;100695.53;;;18.11
18713;BMP280;9485;49.386;8.674;2023-05-07T21:13:53;100698.94;;;18.10
18713;BMP280;9485;49.386;8.674;2023-05-07T21:19:14;100703.34;;;18.11
18713;BMP280;9485;49.386;8.674;2023-05-07T21:24:36;100696.28;;;18.12
18713;BMP280;9485;49.386;8.674;2023-05-07T21:29:56;100704.66;;;18.10
18713;BMP280;9485;49.386;8.674;2023-05-07T21:35:22;100701.31;;;18.06
18713;BMP280;9485;49.386;8.674;2023-05-07T21:40:44;100699.78;;;18.05
18713;BMP280;9485;49.386;8.674;2023-05-07T21:46:06;100705.78;;;18.02
18713;BMP280;9485;49.386;8.674;2023-05-07T21:51:26;100712.59;;;17.99
18713;BMP280;9485;49.386;8.674;2023-05-07T21:56:49;100709.50;;;17.97
18713;BMP280;9485;49.386;8.674;2023-05-07T22:02:09;100712.38;;;17.97
18713;BMP280;9485;49.386;8.674;2023-05-07T22:07:30;100723.78;;;17.97
18713;BMP280;9485;49.386;8.674;2023-05-07T22:12:52;100720.69;;;17.95
18713;BMP280;9485;49.386;8.674;2023-05-07T22:18:12;100732.91;;;17.95
18713;BMP280;9485;49.386;8.674;2023-05-07T22:23:33;100720.69;;;17.95
18713;BMP280;9485;49.386;8.674;2023-05-07T22:28:55;100729.50;;;17.97
18713;BMP280;9485;49.386;8.674;2023-05-07T22:34:15;100733.16;;;17.97
18713;BMP280;9485;49.386;8.674;2023-05-07T22:39:35;100730.50;;;17.99
18713;BMP280;9485;49.386;8.674;2023-05-07T22:44:57;100727.91;;;18.01
18713;BMP280;9485;49.386;8.674;2023-05-07T22:50:18;100721.94;;;17.99
18713;BMP280;9485;49.386;8.674;2023-05-07T22:55:39;100723.25;;;17.98
18713;BMP280;9485;49.386;8.674;2023-05-07T23:01:01;100710.28;;;17.97
18713;BMP280;9485;49.386;8.674;2023-05-07T23:06:47;100701.88;;;17.86
18713;BMP280;9485;49.386;8.674;2023-05-07T23:12:08;100691.28;;;17.81
18713;BMP280;9485;49.386;8.674;2023-05-07T23:17:30;100693.75;;;17.72
18713;BMP280;9485;49.386;8.674;2023-05-07T23:22:52;100696.91;;;17.68
18713;BMP280;9485;49.386;8.674;2023-05-07T23:28:13;100703.41;;;17.69
18713;BMP280;9485;49.386;8.674;2023-05-07T23:33:36;100708.56;;;17.70
18713;BMP280;9485;49.386;8.674;2023-05-07T23:38:56;100704.41;;;17.71
18713;BMP280;9485;49.386;8.674;2023-05-07T23:44:17;100695.53;;;17.75
18713;BMP280;9485;49.386;8.674;2023-05-07T23:49:39;100705.88;;;17.78
18713;BMP280;9485;49.386;8.674;2023-05-07T23:55:00;100709.19;;;17.82
